Time;durP1;ratioP1;P1;durP2;ratioP2;P2;SDS_P1;SDS_P2;PMS_P1;PMS_P2;Temp;Humidity;BMP_temperature;BMP_pressure;BME280_temperature;BME280_humidity;BME280_pressure;Samples;Min_cycle;Max_cycle;Signal;HPM_P1;HPM_P2
2021/03/09 00:02:52;;;;;;;19.57;16.37;;;;;;;3.96;52.87;98201.75;8339691;28;20201;-83
2021/03/09 00:06:54;;;;;;;21.57;17.10;;;;;;;3.96;52.99;98193.19;8340440;28;20200;-83
2021/03/09 00:10:56;;;;;;;18.90;16.57;;;;;;;3.97;52.60;98193.16;8339038;28;20225;-84
2021/03/09 00:14:58;;;;;;;19.07;16.60;;;;;;;3.88;53.34;98181.34;8340362;28;20189;-82
2021/03/09 00:19:06;;;;;;;21.27;16.60;;;;;;;3.90;53.11;98184.72;8345375;28;20212;-83
2021/03/09 00:23:08;;;;;;;19.90;16.57;;;;;;;3.78;53.00;98181.47;8346037;28;20211;-83
2021/03/09 00:27:11;;;;;;;19.07;16.77;;;;;;;3.70;53.02;98184.16;8346376;28;20200;-83
2021/03/09 00:31:14;;;;;;;21.20;17.60;;;;;;;3.60;53.76;98172.31;8346292;28;20204;-84
2021/03/09 00:35:16;;;;;;;21.47;18.43;;;;;;;3.67;53.80;98168.81;8347072;28;20243;-83
2021/03/09 00:39:18;;;;;;;22.30;17.67;;;;;;;3.72;53.84;98177.28;8352074;28;20230;-83
2021/03/09 00:43:20;;;;;;;20.97;17.40;;;;;;;3.83;53.67;98174.59;8342711;28;20315;-83
2021/03/09 00:47:23;;;;;;;19.50;17.27;;;;;;;3.65;53.56;98176.50;8358159;28;20224;-83
2021/03/09 00:51:25;;;;;;;21.10;17.73;;;;;;;3.67;53.66;98171.38;8377860;28;20226;-82
2021/03/09 00:55:28;;;;;;;19.57;17.47;;;;;;;3.55;54.15;98168.97;8376012;28;20528;-83
2021/03/09 00:59:30;;;;;;;20.63;17.23;;;;;;;3.60;53.78;98168.06;8375670;28;20200;-83
2021/03/09 01:03:33;;;;;;;17.57;15.77;;;;;;;3.56;54.04;98161.28;8345395;28;20212;-83
2021/03/09 01:07:35;;;;;;;21.83;16.83;;;;;;;3.65;54.13;98157.75;8350504;28;20703;-81
2021/03/09 01:11:37;;;;;;;19.50;17.07;;;;;;;3.56;53.83;98160.41;8343012;28;20237;-85
2021/03/09 01:15:39;;;;;;;21.83;17.47;;;;;;;3.56;53.69;98160.41;8342656;28;20200;-84
2021/03/09 01:19:53;;;;;;;18.97;16.50;;;;;;;3.41;53.77;98149.53;8344730;28;20192;-83
2021/03/09 01:23:55;;;;;;;19.87;16.70;;;;;;;3.41;53.78;98146.97;8345620;28;20270;-84
2021/03/09 01:27:57;;;;;;;21.17;16.43;;;;;;;3.36;53.49;98146.16;8315287;28;20217;-84
2021/03/09 01:31:59;;;;;;;20.00;17.30;;;;;;;3.57;53.26;98146.75;8314843;28;20180;-83
2021/03/09 01:36:08;;;;;;;18.87;16.77;;;;;;;3.44;53.48;98139.22;8317747;28;20282;-84
2021/03/09 01:40:13;;;;;;;19.13;15.13;;;;;;;3.39;53.92;98132.47;8301881;28;20232;-84
2021/03/09 01:44:15;;;;;;;19.27;15.83;;;;;;;3.36;53.37;98124.84;8319053;28;20212;-85
2021/03/09 01:48:21;;;;;;;18.17;15.40;;;;;;;3.31;53.91;98125.75;8318595;28;20225;-84
2021/03/09 01:52:25;;;;;;;19.17;15.57;;;;;;;3.30;53.66;98123.22;8337301;28;20189;-83
2021/03/09 01:56:27;;;;;;;19.30;16.17;;;;;;;3.31;53.05;98107.84;8315245;28;20212;-83
2021/03/09 02:00:29;;;;;;;18.50;16.40;;;;;;;3.33;53.02;98106.09;8308394;28;20204;-83
2021/03/09 02:04:32;;;;;;;18.97;16.00;;;;;;;3.17;52.77;98102.03;8309138;28;20205;-83
2021/03/09 02:08:35;;;;;;;18.13;16.07;;;;;;;3.28;52.33;98102.75;8306916;28;20232;-85
2021/03/09 02:12:47;;;;;;;19.20;15.13;;;;;;;3.20;52.83;98098.56;8306948;28;20323;-85
2021/03/09 02:16:54;;;;;;;17.23;15.33;;;;;;;3.19;52.76;98095.19;8306741;28;20201;-84
2021/03/09 02:21:14;;;;;;;22.33;15.47;;;;;;;3.19;52.59;98086.66;8288380;28;20209;-85
2021/03/09 02:25:32;;;;;;;18.13;15.07;;;;;;;3.17;52.75;98085.84;8306659;28;20197;-83
2021/03/09 02:30:13;;;;;;;20.17;15.87;;;;;;;3.07;52.61;98090.22;8305646;28;20221;-82
2021/03/09 02:34:20;;;;;;;17.40;14.60;;;;;;;3.06;53.57;98086.81;8233724;28;20197;-82
2021/03/09 02:38:23;;;;;;;18.27;15.93;;;;;;;3.16;53.16;98090.13;8305778;28;20209;-82
2021/03/09 02:42:27;;;;;;;24.87;15.27;;;;;;;2.96;52.98;98077.56;8306344;28;21044;-82
2021/03/09 02:46:31;;;;;;;17.80;15.13;;;;;;;2.96;53.04;98079.28;8306051;28;20538;-82
2021/03/09 02:50:37;;;;;;;17.03;14.83;;;;;;;3.13;52.82;98077.34;8305238;28;20233;-82
2021/03/09 02:54:40;;;;;;;17.20;14.73;;;;;;;3.10;52.98;98072.25;8305620;28;20209;-82
2021/03/09 02:58:44;;;;;;;18.00;15.30;;;;;;;3.01;53.31;98065.56;8305445;28;20220;-82
2021/03/09 03:02:47;;;;;;;18.43;15.60;;;;;;;3.02;53.64;98069.78;8334597;28;20212;-83
2021/03/09 03:06:50;;;;;;;18.27;15.83;;;;;;;3.08;53.33;98062.03;8339757;28;20205;-83
2021/03/09 03:10:53;;;;;;;19.33;15.57;;;;;;;3.06;53.76;98070.63;8338772;28;20235;-83
2021/03/09 03:14:56;;;;;;;20.00;15.73;;;;;;;2.95;54.24;98063.06;8340056;28;20189;-83
2021/03/09 03:19:00;;;;;;;17.70;15.83;;;;;;;2.98;54.42;98062.19;8339013;28;20205;-83
2021/03/09 03:23:03;;;;;;;17.87;15.37;;;;;;;3.06;54.03;98061.22;8339465;28;20660;-83
2021/03/09 03:27:06;;;;;;;20.23;16.43;;;;;;;2.99;54.13;98067.28;8339738;28;20212;-82
2021/03/09 03:31:08;;;;;;;17.17;15.37;;;;;;;3.03;53.79;98063.00;8338986;28;20220;-83
2021/03/09 03:35:12;;;;;;;17.60;15.33;;;;;;;3.01;53.85;98057.03;8338907;28;20578;-83
2021/03/09 03:39:16;;;;;;;19.00;15.93;;;;;;;3.02;53.36;98062.13;8338609;28;20217;-83
2021/03/09 03:43:18;;;;;;;18.70;16.07;;;;;;;3.00;53.80;98052.78;8340099;28;20197;-83
2021/03/09 03:47:20;;;;;;;18.93;15.63;;;;;;;3.04;53.79;98054.44;8341042;28;20636;-84
2021/03/09 03:51:38;;;;;;;17.70;15.80;;;;;;;3.04;53.99;98055.28;8346109;28;20540;-84
2021/03/09 03:55:50;;;;;;;16.77;15.03;;;;;;;2.97;53.79;98053.69;8346556;28;20192;-84
2021/03/09 03:59:54;;;;;;;18.17;15.67;;;;;;;3.05;53.78;98058.69;8347088;28;20200;-84
2021/03/09 04:03:57;;;;;;;18.17;15.43;;;;;;;3.03;53.63;98055.31;8348796;28;20207;-84
2021/03/09 04:08:00;;;;;;;18.40;15.97;;;;;;;3.04;53.64;98047.59;8371228;28;20225;-83
2021/03/09 04:12:06;;;;;;;18.30;15.63;;;;;;;2.85;53.66;98041.03;8346178;28;20600;-83
2021/03/09 04:16:08;;;;;;;17.53;14.70;;;;;;;2.95;53.62;98034.91;8346110;28;20625;-83
2021/03/09 04:20:13;;;;;;;18.90;16.13;;;;;;;2.93;53.70;98029.84;8345229;28;20220;-83
2021/03/09 04:24:15;;;;;;;20.27;16.37;;;;;;;2.95;53.70;98029.81;8346636;28;20201;-83
2021/03/09 04:28:19;;;;;;;18.33;15.63;;;;;;;2.90;53.69;98027.31;8346251;28;20217;-83
2021/03/09 04:32:25;;;;;;;20.27;15.70;;;;;;;2.90;53.15;98029.88;8346314;28;20228;-83
2021/03/09 04:36:27;;;;;;;20.63;15.43;;;;;;;2.93;53.31;98034.09;8349230;28;20215;-83
2021/03/09 04:40:29;;;;;;;17.37;15.57;;;;;;;2.85;53.09;98041.88;8331763;28;20213;-83
2021/03/09 04:44:32;;;;;;;17.80;15.97;;;;;;;2.90;53.35;98031.59;8344061;28;20200;-83
2021/03/09 04:48:37;;;;;;;18.60;15.30;;;;;;;2.81;53.40;98031.69;8342957;28;20231;-85
2021/03/09 04:52:39;;;;;;;18.30;16.23;;;;;;;2.82;53.95;98041.03;8342326;28;20201;-83
2021/03/09 04:56:42;;;;;;;17.60;15.20;;;;;;;2.82;54.38;98035.94;8342326;28;20200;-83
2021/03/09 05:00:45;;;;;;;17.53;15.30;;;;;;;2.85;54.32;98031.63;8323957;28;20212;-83
2021/03/09 05:04:47;;;;;;;18.87;15.43;;;;;;;2.99;53.62;98033.16;8342961;28;20659;-84
2021/03/09 05:08:49;;;;;;;17.17;15.00;;;;;;;2.97;53.42;98037.47;8325132;28;20695;-85
2021/03/09 05:12:51;;;;;;;21.10;15.50;;;;;;;2.88;53.85;98030.78;8341856;28;20243;-84
2021/03/09 05:16:55;;;;;;;18.17;15.53;;;;;;;2.90;53.22;98031.59;8340952;28;20209;-83
2021/03/09 05:20:57;;;;;;;17.33;15.23;;;;;;;2.95;53.21;98027.25;8342809;28;20595;-85
2021/03/09 05:25:00;;;;;;;17.50;14.53;;;;;;;2.99;53.42;98026.38;8341140;28;20262;-84
2021/03/09 05:29:01;;;;;;;18.17;15.70;;;;;;;2.93;53.75;98026.41;8340795;28;20235;-84
2021/03/09 05:33:04;;;;;;;17.73;14.93;;;;;;;2.87;54.18;98031.63;8341243;28;20561;-82
2021/03/09 05:37:08;;;;;;;21.03;15.40;;;;;;;2.90;53.85;98031.59;8341992;28;20243;-84
2021/03/09 05:41:11;;;;;;;19.33;16.10;;;;;;;2.89;53.97;98028.19;8323365;28;20232;-85
2021/03/09 05:45:13;;;;;;;19.47;16.33;;;;;;;2.82;54.34;98026.56;8340615;28;20224;-85
2021/03/09 05:49:17;;;;;;;17.53;15.63;;;;;;;2.90;54.67;98035.00;8322912;28;20231;-85
2021/03/09 05:53:24;;;;;;;18.40;15.37;;;;;;;2.81;54.35;98039.38;8341644;28;20288;-84
2021/03/09 05:57:26;;;;;;;20.73;15.80;;;;;;;2.85;54.78;98039.31;8339877;28;20707;-83
2021/03/09 06:01:28;;;;;;;17.27;15.13;;;;;;;2.93;54.85;98029.84;8338825;28;20209;-84
2021/03/09 06:05:32;;;;;;;20.67;15.37;;;;;;;3.00;54.08;98032.31;8340280;28;20235;-83
2021/03/09 06:09:39;;;;;;;17.60;15.63;;;;;;;2.97;54.73;98032.34;8343213;28;20224;-84
2021/03/09 06:13:41;;;;;;;18.17;16.03;;;;;;;3.04;54.90;98037.34;8341329;28;20248;-83
2021/03/09 06:17:45;;;;;;;18.60;16.60;;;;;;;3.09;54.65;98038.16;8344361;28;20208;-83
2021/03/09 06:21:53;;;;;;;21.03;16.30;;;;;;;3.08;54.75;98044.13;8355837;28;20192;-83
2021/03/09 06:25:55;;;;;;;18.43;16.23;;;;;;;3.13;54.62;98047.47;8353593;28;20196;-83
2021/03/09 06:29:58;;;;;;;18.37;15.43;;;;;;;3.22;54.39;98045.66;8338881;28;20227;-83
2021/03/09 06:34:25;;;;;;;17.10;15.07;;;;;;;3.35;54.32;98043.78;8339587;28;20208;-83
2021/03/09 06:38:32;;;;;;;20.57;16.20;;;;;;;3.29;54.59;98045.59;8340895;28;20193;-83
2021/03/09 06:42:36;;;;;;;19.50;16.57;;;;;;;3.33;54.52;98049.78;8337105;28;20308;-82
2021/03/09 06:46:45;;;;;;;18.87;16.17;;;;;;;3.39;54.95;98053.09;8338450;28;20197;-82
2021/03/09 06:50:47;;;;;;;19.83;15.70;;;;;;;3.50;54.81;98047.00;8340433;28;20236;-84
2021/03/09 06:54:52;;;;;;;19.97;15.47;;;;;;;3.55;54.90;98053.75;8339046;28;20220;-83
2021/03/09 06:58:55;;;;;;;28.47;19.37;;;;;;;3.66;54.92;98060.41;8335138;28;20204;-83
2021/03/09 07:02:56;;;;;;;25.60;18.23;;;;;;;3.71;55.13;98055.19;8339605;28;20207;-83
2021/03/09 07:06:59;;;;;;;21.00;15.43;;;;;;;3.88;55.06;98068.59;8310906;28;20201;-83
2021/03/09 07:11:02;;;;;;;23.13;15.47;;;;;;;3.84;54.39;98060.97;8315249;28;20233;-84
2021/03/09 07:15:06;;;;;;;21.57;16.03;;;;;;;3.79;55.07;98070.44;8311137;28;20586;-83
2021/03/09 07:19:10;;;;;;;20.70;16.97;;;;;;;3.97;54.51;98080.41;8309239;28;20538;-83
2021/03/09 07:23:12;;;;;;;23.77;16.77;;;;;;;4.09;54.29;98079.34;8311216;28;20201;-83
2021/03/09 07:27:18;;;;;;;22.77;16.33;;;;;;;4.17;54.20;98076.66;8312733;28;20208;-83
2021/03/09 07:31:23;;;;;;;63.87;19.17;;;;;;;4.25;54.45;98085.09;8295790;28;20224;-84
2021/03/09 07:35:27;;;;;;;31.30;16.33;;;;;;;4.17;54.38;98058.72;8316365;28;20555;-85
2021/03/09 07:39:30;;;;;;;28.80;16.27;;;;;;;4.43;54.47;98078.78;8315120;28;20197;-83
2021/03/09 07:43:34;;;;;;;19.47;15.20;;;;;;;4.57;54.59;98071.69;8315600;28;20208;-83
2021/03/09 07:47:40;;;;;;;26.27;17.57;;;;;;;4.65;54.44;98077.53;8320697;28;20657;-83
2021/03/09 07:52:11;;;;;;;24.13;16.40;;;;;;;4.66;54.31;98071.53;8348433;28;20232;-84
2021/03/09 07:56:14;;;;;;;21.70;16.23;;;;;;;4.70;53.69;98070.59;8350818;28;20220;-82
2021/03/09 08:00:17;;;;;;;20.97;16.20;;;;;;;4.85;53.67;98076.28;8368267;28;20195;-81
2021/03/09 08:04:18;;;;;;;25.73;17.73;;;;;;;4.84;53.06;98072.88;8352167;28;20224;-82
2021/03/09 08:08:44;;;;;;;20.63;16.43;;;;;;;4.99;52.59;98066.59;8344448;28;20259;-83
2021/03/09 08:12:46;;;;;;;21.27;18.00;;;;;;;5.05;52.11;98065.63;8330175;28;20228;-82
2021/03/09 08:16:50;;;;;;;18.93;16.87;;;;;;;4.93;52.12;98079.56;8312313;28;20197;-83
2021/03/09 08:20:54;;;;;;;21.33;17.07;;;;;;;5.39;52.04;98076.03;8312017;28;20205;-84
2021/03/09 08:24:57;;;;;;;23.90;17.67;;;;;;;5.65;50.59;98079.75;8321835;28;20208;-81
2021/03/09 08:28:59;;;;;;;21.50;17.97;;;;;;;5.78;50.20;98072.59;8342143;28;20221;-82
2021/03/09 08:33:35;;;;;;;23.73;18.20;;;;;;;6.04;49.25;98070.28;8345955;28;20197;-82
2021/03/09 08:37:38;;;;;;;22.03;17.17;;;;;;;6.22;49.39;98068.97;8352415;28;20196;-82
2021/03/09 08:42:02;;;;;;;20.30;16.87;;;;;;;6.63;48.39;98066.22;8359720;28;20224;-81
2021/03/09 08:46:06;;;;;;;21.07;18.37;;;;;;;6.32;49.42;98066.16;8328820;28;20192;-84
2021/03/09 08:50:10;;;;;;;25.47;17.97;;;;;;;6.23;49.26;98059.56;8336010;28;20256;-84
2021/03/09 08:54:29;;;;;;;18.40;15.80;;;;;;;8.16;52.24;98058.19;8337430;28;20207;-82
2021/03/09 08:58:32;;;;;;;17.00;15.00;;;;;;;9.75;46.55;98062.88;8339137;28;20199;-82
2021/03/09 09:02:40;;;;;;;19.87;14.50;;;;;;;10.70;50.12;98068.44;8342783;28;20228;-82
2021/03/09 09:06:43;;;;;;;18.77;14.23;;;;;;;11.42;47.06;98060.06;8347372;28;20208;-81
2021/03/09 09:10:45;;;;;;;21.17;16.50;;;;;;;10.99;38.91;98062.00;8345749;28;20232;-82
2021/03/09 09:14:48;;;;;;;19.00;16.97;;;;;;;9.13;41.45;98059.19;8349070;28;20204;-82
2021/03/09 09:18:50;;;;;;;20.67;15.67;;;;;;;8.23;43.72;98061.44;8351831;28;20204;-81
2021/03/09 09:22:54;;;;;;;18.80;16.80;;;;;;;8.11;44.86;98066.97;8330057;28;20200;-81
2021/03/09 09:27:01;;;;;;;18.90;16.90;;;;;;;8.23;44.55;98051.94;8346118;28;20207;-81
2021/03/09 09:31:05;;;;;;;19.33;17.23;;;;;;;7.93;43.95;98055.53;8346406;28;20582;-81
2021/03/09 09:35:19;;;;;;;22.10;18.10;;;;;;;7.70;45.02;98053.69;8348613;28;20571;-81
2021/03/09 09:39:32;;;;;;;23.03;18.17;;;;;;;7.39;45.49;98059.78;8349569;28;20208;-82
2021/03/09 09:43:36;;;;;;;23.23;18.87;;;;;;;6.61;47.68;98044.84;8349915;28;20233;-81
2021/03/09 09:47:38;;;;;;;21.93;18.47;;;;;;;7.05;47.74;98055.63;8349037;28;20208;-81
2021/03/09 09:51:42;;;;;;;22.37;19.20;;;;;;;7.40;46.17;98052.00;8340960;28;20232;-80
2021/03/09 09:55:55;;;;;;;23.97;17.67;;;;;;;7.61;46.08;98055.66;8340514;28;20285;-81
2021/03/09 10:00:11;;;;;;;20.07;17.87;;;;;;;7.54;46.07;98051.59;8341218;28;20204;-81
2021/03/09 10:04:14;;;;;;;22.30;18.00;;;;;;;7.86;46.18;98054.03;8342073;28;20200;-80
2021/03/09 10:08:33;;;;;;;20.93;18.70;;;;;;;7.98;45.29;98043.34;8341955;28;20200;-81
2021/03/09 10:12:38;;;;;;;1735.77;60.43;;;;;;;8.66;47.10;98039.31;8342410;28;20236;-81
2021/03/09 10:16:41;;;;;;;22.15;19.42;;;;;;;9.28;42.04;98040.50;8340505;28;20891;-81
2021/03/09 10:20:43;;;;;;;22.87;17.70;;;;;;;9.10;43.41;98030.84;8341876;28;20217;-81
2021/03/09 10:24:45;;;;;;;21.80;18.40;;;;;;;9.14;41.50;98029.88;8343908;28;20215;-81
2021/03/09 10:28:49;;;;;;;21.83;18.50;;;;;;;9.24;41.33;98031.19;8344957;28;20232;-81
2021/03/09 10:32:51;;;;;;;23.13;17.70;;;;;;;9.99;40.48;98027.38;8340971;28;20213;-82
2021/03/09 10:36:56;;;;;;;21.80;17.80;;;;;;;10.15;39.66;98032.78;8341083;28;20204;-81
2021/03/09 10:40:59;;;;;;;23.57;17.40;;;;;;;10.26;38.52;98024.56;8343925;28;20556;-81
2021/03/09 10:45:21;;;;;;;21.77;16.40;;;;;;;10.53;38.03;98027.78;8345048;28;20204;-82
2021/03/09 10:49:23;;;;;;;19.43;16.50;;;;;;;11.00;38.50;98022.22;8349510;28;20223;-82
2021/03/09 10:53:25;;;;;;;22.77;16.53;;;;;;;10.96;37.19;98016.34;8348895;28;20216;-82
2021/03/09 10:57:27;;;;;;;16.40;14.33;;;;;;;11.23;36.59;98020.34;8356436;28;20191;-81
2021/03/09 11:01:32;;;;;;;19.20;15.30;;;;;;;11.61;35.01;98026.31;8354210;28;20208;-81
2021/03/09 11:05:34;;;;;;;16.67;14.60;;;;;;;11.10;35.63;98020.91;8342228;28;20200;-82
2021/03/09 11:09:36;;;;;;;14.90;13.30;;;;;;;10.29;35.69;98027.03;8341046;28;20228;-82
2021/03/09 11:13:38;;;;;;;14.67;12.70;;;;;;;11.26;34.20;98022.78;8341330;28;20684;-82
2021/03/09 11:17:42;;;;;;;14.50;13.00;;;;;;;10.39;34.73;98007.63;8340957;28;20204;-82
2021/03/09 11:21:44;;;;;;;19.30;16.03;;;;;;;10.19;35.13;98011.06;8323349;28;20201;-82
2021/03/09 11:25:46;;;;;;;13.13;11.33;;;;;;;10.44;33.32;98007.44;8308591;28;20208;-82
2021/03/09 11:29:49;;;;;;;12.97;11.30;;;;;;;10.25;35.07;98004.78;8308559;28;20692;-82
2021/03/09 11:33:52;;;;;;;12.97;11.57;;;;;;;10.13;35.93;98001.78;8309893;28;20205;-80
2021/03/09 11:37:54;;;;;;;15.97;12.37;;;;;;;10.04;36.19;98001.34;8315691;28;20200;-81
2021/03/09 11:41:56;;;;;;;16.10;12.87;;;;;;;9.96;37.33;98001.66;8340861;28;20208;-81
2021/03/09 11:45:59;;;;;;;19.77;6.87;;;;;;;11.29;60.38;98007.94;8338941;28;20212;-81
2021/03/09 11:50:03;;;;;;;20.37;9.60;;;;;;;12.49;48.86;97996.09;8337881;28;20235;-81
2021/03/09 11:54:06;;;;;;;15.10;9.90;;;;;;;12.94;44.12;97991.97;8340160;28;20212;-83
2021/03/09 11:58:08;;;;;;;14.17;10.30;;;;;;;13.46;35.32;97998.72;8339990;28;20196;-80
2021/03/09 12:02:10;;;;;;;15.83;11.30;;;;;;;12.59;32.87;97986.06;8339737;28;20569;-81
2021/03/09 12:06:14;;;;;;;12.83;10.03;;;;;;;12.90;33.30;97983.50;8339144;28;20200;-81
2021/03/09 12:10:16;;;;;;;11.50;10.30;;;;;;;13.10;33.30;97976.41;8339021;28;20239;-80
2021/03/09 12:14:18;;;;;;;11.23;9.93;;;;;;;13.23;31.99;97971.34;8326792;28;20228;-81
2021/03/09 12:18:20;;;;;;;10.77;9.70;;;;;;;13.30;32.12;97964.91;8344893;28;20204;-81
2021/03/09 12:22:22;;;;;;;25.60;9.83;;;;;;;13.39;31.51;97961.81;8340597;28;20203;-81
2021/03/09 12:26:25;;;;;;;13.77;9.33;;;;;;;13.24;32.02;97957.44;8321276;28;20207;-81
2021/03/09 12:30:28;;;;;;;14.17;9.17;;;;;;;12.91;32.03;97951.41;8319008;28;20227;-81
2021/03/09 12:34:30;;;;;;;11.37;8.43;;;;;;;13.05;33.36;97945.44;8334846;28;20247;-80
2021/03/09 12:38:32;;;;;;;12.80;8.23;;;;;;;13.14;33.66;97945.88;8338638;28;20200;-81
2021/03/09 12:42:35;;;;;;;8.53;7.17;;;;;;;13.21;33.67;97945.44;8342571;28;20212;-81
2021/03/09 12:46:37;;;;;;;8.70;7.37;;;;;;;12.03;30.75;97934.38;8343929;28;20205;-81
2021/03/09 12:50:39;;;;;;;9.30;8.23;;;;;;;11.66;31.29;97933.56;8344189;28;20227;-82
2021/03/09 12:54:42;;;;;;;11.37;9.80;;;;;;;11.04;32.06;97932.22;8344210;28;20200;-82
2021/03/09 12:58:44;;;;;;;9.40;8.47;;;;;;;11.06;31.34;97922.63;8344502;28;20200;-83
2021/03/09 13:02:46;;;;;;;10.53;9.00;;;;;;;11.59;30.95;97913.19;8343166;28;20224;-82
2021/03/09 13:06:48;;;;;;;10.87;9.10;;;;;;;11.88;31.11;97910.00;8342767;28;20208;-81
2021/03/09 13:10:52;;;;;;;9.97;8.90;;;;;;;11.44;31.84;97907.84;8341217;28;20232;-83
2021/03/09 13:14:54;;;;;;;10.40;9.27;;;;;;;11.02;31.21;97911.56;8329876;28;20193;-83
2021/03/09 13:18:56;;;;;;;10.73;9.60;;;;;;;10.80;32.14;97909.16;8336841;28;20313;-82
2021/03/09 13:22:58;;;;;;;10.20;9.20;;;;;;;11.49;31.82;97902.44;8319021;28;20200;-82
2021/03/09 13:27:01;;;;;;;9.93;8.30;;;;;;;11.64;30.44;97906.03;8315464;28;20192;-83
2021/03/09 13:31:03;;;;;;;8.43;7.63;;;;;;;12.04;30.22;97910.06;8338986;28;20232;-82
2021/03/09 13:35:06;;;;;;;10.00;7.30;;;;;;;12.20;29.37;97901.50;8338959;28;20482;-82
2021/03/09 13:39:08;;;;;;;9.60;7.40;;;;;;;12.16;29.53;97902.56;8340314;28;20595;-82
2021/03/09 13:43:12;;;;;;;7.53;6.73;;;;;;;12.34;28.30;97888.63;8339740;28;20294;-82
2021/03/09 13:47:14;;;;;;;14.03;8.03;;;;;;;12.35;29.09;97897.25;8322185;28;20215;-81
2021/03/09 13:51:16;;;;;;;12.73;8.10;;;;;;;12.15;29.49;97890.50;8340136;28;20228;-82
2021/03/09 13:55:18;;;;;;;10.93;7.77;;;;;;;12.58;29.21;97889.06;8339824;28;20207;-82
2021/03/09 13:59:22;;;;;;;8.97;7.77;;;;;;;12.07;29.43;97880.50;8323929;28;20208;-82
2021/03/09 14:03:24;;;;;;;26.90;8.63;;;;;;;11.73;30.46;97884.81;8336517;28;20213;-82
2021/03/09 14:07:26;;;;;;;8.53;7.63;;;;;;;11.45;30.96;97885.34;8335583;28;20201;-81
2021/03/09 14:11:28;;;;;;;9.73;7.27;;;;;;;10.66;30.39;97880.44;8338586;28;20581;-81
2021/03/09 14:15:31;;;;;;;8.60;7.60;;;;;;;10.57;32.70;97884.31;8339120;28;20196;-81
2021/03/09 14:19:33;;;;;;;11.40;8.37;;;;;;;10.33;32.99;97892.25;8338939;28;20205;-82
2021/03/09 14:23:35;;;;;;;12.05;9.52;;;;;;;11.22;34.19;97881.28;8337092;28;20687;-81
2021/03/09 14:27:38;;;;;;;10.33;8.40;;;;;;;10.47;33.06;97883.03;8338847;28;20201;-81
2021/03/09 14:31:41;;;;;;;10.50;8.07;;;;;;;10.19;31.92;97892.00;8337461;28;20585;-81
2021/03/09 14:35:43;;;;;;;9.40;8.40;;;;;;;10.06;32.97;97886.50;8338276;28;20208;-81
2021/03/09 14:39:45;;;;;;;10.07;8.33;;;;;;;10.02;33.54;97884.97;8339139;28;20239;-81
2021/03/09 14:43:48;;;;;;;9.57;8.23;;;;;;;9.92;33.62;97883.69;8339026;28;20201;-81
2021/03/09 14:47:51;;;;;;;10.47;8.70;;;;;;;9.97;33.49;97885.16;8338675;28;20200;-81
2021/03/09 14:51:53;;;;;;;9.77;8.43;;;;;;;10.02;34.07;97882.38;8339886;28;20224;-82
2021/03/09 14:55:55;;;;;;;8.90;8.00;;;;;;;9.97;33.86;97879.97;8339121;28;20205;-82
2021/03/09 14:59:57;;;;;;;10.80;8.43;;;;;;;9.90;34.24;97878.59;8339072;28;20216;-81
2021/03/09 15:04:00;;;;;;;16.73;13.07;;;;;;;9.77;34.60;97883.44;8320505;28;20207;-82
2021/03/09 15:08:02;;;;;;;10.27;8.53;;;;;;;9.62;35.17;97884.09;8336845;28;20197;-82
2021/03/09 15:12:05;;;;;;;10.33;8.80;;;;;;;9.68;35.78;97881.22;8337725;28;20236;-82
2021/03/09 15:16:08;;;;;;;10.77;8.70;;;;;;;9.66;35.67;97879.63;8338039;28;20200;-82
2021/03/09 15:20:13;;;;;;;9.60;8.60;;;;;;;9.57;35.17;97881.66;8339913;28;20196;-82
2021/03/09 15:24:16;;;;;;;10.13;9.07;;;;;;;9.65;34.91;97880.53;8340082;28;20231;-81
2021/03/09 15:28:18;;;;;;;9.73;8.77;;;;;;;9.59;35.09;97879.91;8339791;28;20758;-81
2021/03/09 15:32:21;;;;;;;10.67;9.20;;;;;;;9.64;34.32;97874.50;8340086;28;20228;-82
2021/03/09 15:36:24;;;;;;;12.67;10.37;;;;;;;9.58;34.73;97870.44;8338298;28;20319;-82
2021/03/09 15:40:26;;;;;;;13.20;8.93;;;;;;;9.44;35.41;97865.00;8338122;28;20215;-82
2021/03/09 15:44:28;;;;;;;9.83;8.83;;;;;;;9.49;34.90;97876.00;8338229;28;20210;-82
2021/03/09 15:48:30;;;;;;;9.97;8.93;;;;;;;9.56;36.42;97874.00;8344123;28;20207;-82
2021/03/09 15:52:34;;;;;;;10.43;9.23;;;;;;;9.54;36.15;97873.22;8342778;28;20225;-82
2021/03/09 15:56:36;;;;;;;11.73;9.47;;;;;;;9.48;35.27;97868.28;8311442;28;20217;-83
2021/03/09 16:00:38;;;;;;;10.83;9.10;;;;;;;9.48;35.73;97869.16;8310606;28;20209;-82
2021/03/09 16:04:40;;;;;;;10.20;9.20;;;;;;;9.26;35.96;97869.19;8310948;28;20216;-82
2021/03/09 16:08:43;;;;;;;10.47;9.30;;;;;;;9.33;36.85;97875.78;8319642;28;20205;-82
2021/03/09 16:12:46;;;;;;;12.67;9.83;;;;;;;9.35;36.79;97876.56;8322908;28;20262;-80
2021/03/09 16:16:48;;;;;;;15.43;9.67;;;;;;;9.32;36.68;97868.09;8338743;28;20196;-81
2021/03/09 16:20:50;;;;;;;25.17;10.77;;;;;;;9.30;37.02;97885.41;8344825;28;20640;-82
2021/03/09 16:24:54;;;;;;;19.20;10.63;;;;;;;9.35;37.15;97884.31;8344614;28;20205;-82
2021/03/09 16:28:56;;;;;;;10.87;9.40;;;;;;;9.35;36.44;97886.06;8344797;28;20208;-81
2021/03/09 16:32:57;;;;;;;13.00;9.67;;;;;;;9.26;36.84;97883.84;8344419;28;20229;-82
2021/03/09 16:37:00;;;;;;;13.27;9.57;;;;;;;9.24;36.39;97894.25;8329357;28;20224;-81
2021/03/09 16:41:03;;;;;;;17.67;9.33;;;;;;;9.14;36.11;97888.59;8339780;28;20200;-82
2021/03/09 16:45:07;;;;;;;10.27;9.23;;;;;;;9.11;36.72;97888.72;8344079;28;20231;-82
2021/03/09 16:49:10;;;;;;;10.87;9.57;;;;;;;8.86;36.31;97896.59;8344572;28;21073;-82
2021/03/09 16:53:14;;;;;;;12.67;9.53;;;;;;;9.00;36.48;97901.22;8341667;28;20306;-82
2021/03/09 16:57:18;;;;;;;16.03;14.20;;;;;;;9.02;36.78;97904.56;8346033;28;20212;-82
2021/03/09 17:01:25;;;;;;;18.83;15.77;;;;;;;9.01;36.63;97895.16;8339553;28;20220;-82
2021/03/09 17:05:27;;;;;;;12.23;10.73;;;;;;;8.76;36.18;97915.94;8338164;28;20244;-81
2021/03/09 17:09:29;;;;;;;12.50;10.93;;;;;;;8.88;37.28;97919.78;8330071;28;20596;-82
2021/03/09 17:13:32;;;;;;;11.10;9.80;;;;;;;8.76;38.45;97919.34;8345080;28;20232;-82
2021/03/09 17:17:35;;;;;;;9.90;8.90;;;;;;;8.76;38.23;97927.09;8345970;28;20197;-82
2021/03/09 17:21:37;;;;;;;11.17;9.50;;;;;;;8.74;38.24;97928.88;8345940;28;20260;-82
2021/03/09 17:25:40;;;;;;;11.90;10.53;;;;;;;8.79;38.68;97926.13;8350003;28;20204;-81
2021/03/09 17:29:43;;;;;;;15.43;13.40;;;;;;;8.75;38.24;97934.88;8351684;28;20228;-82
2021/03/09 17:33:45;;;;;;;14.33;11.07;;;;;;;8.76;38.64;97950.31;8346294;28;20205;-81
2021/03/09 17:37:48;;;;;;;11.20;10.10;;;;;;;8.95;38.35;97950.47;8346817;28;20423;-82
2021/03/09 17:41:50;;;;;;;13.47;10.63;;;;;;;8.68;38.85;97951.50;8346181;28;20204;-82
2021/03/09 17:45:53;;;;;;;13.47;11.77;;;;;;;8.61;40.46;97956.91;8346022;28;20550;-82
2021/03/09 17:49:56;;;;;;;11.37;10.17;;;;;;;8.60;40.64;97959.53;8320902;28;20225;-82
2021/03/09 17:53:58;;;;;;;12.10;10.77;;;;;;;8.56;41.31;97956.22;8345517;28;20275;-82
2021/03/09 17:58:01;;;;;;;13.40;10.57;;;;;;;8.42;41.97;97958.47;8364512;28;20203;-82
2021/03/09 18:02:09;;;;;;;12.07;10.10;;;;;;;8.49;42.29;97959.06;8364588;28;20239;-81
2021/03/09 18:06:11;;;;;;;11.40;10.03;;;;;;;8.48;42.29;97963.41;8364386;28;20620;-81
2021/03/09 18:10:14;;;;;;;11.60;10.40;;;;;;;8.43;42.18;97965.28;8363522;28;20604;-81
2021/03/09 18:14:16;;;;;;;12.27;10.93;;;;;;;8.23;42.98;97973.72;8349920;28;20294;-82
2021/03/09 18:18:19;;;;;;;13.30;10.57;;;;;;;8.28;42.89;97982.16;8326846;28;20261;-81
2021/03/09 18:22:21;;;;;;;17.17;15.37;;;;;;;8.35;42.46;97987.91;8347806;28;20219;-80
2021/03/09 18:26:23;;;;;;;26.07;19.33;;;;;;;8.39;42.08;97999.81;8348103;28;20216;-80
2021/03/09 18:30:26;;;;;;;20.30;17.23;;;;;;;8.38;41.92;97998.97;8343688;28;20221;-81
2021/03/09 18:34:31;;;;;;;21.20;16.93;;;;;;;8.36;41.94;97993.03;8345404;28;20204;-81
2021/03/09 18:38:33;;;;;;;23.07;19.07;;;;;;;8.39;42.51;97999.81;8343877;28;20200;-82
2021/03/09 18:42:36;;;;;;;14.97;12.40;;;;;;;8.19;43.24;98000.53;8342790;28;20208;-82
2021/03/09 18:46:38;;;;;;;13.37;11.57;;;;;;;8.13;44.23;98009.31;8356140;28;20192;-82
2021/03/09 18:50:43;;;;;;;13.20;11.80;;;;;;;8.15;44.58;98006.69;8342011;28;20220;-81
2021/03/09 18:54:44;;;;;;;13.77;11.97;;;;;;;8.19;44.88;97998.78;8344303;28;20201;-81
2021/03/09 18:58:48;;;;;;;13.20;11.77;;;;;;;8.11;45.66;98005.06;8342446;28;20258;-81